Time;durP1;ratioP1;P1;durP2;ratioP2;P2;SDS_P1;SDS_P2;PMS_P1;PMS_P2;Temp;Humidity;BMP_temperature;BMP_pressure;BME280_temperature;BME280_humidity;BME280_pressure;Samples;Min_cycle;Max_cycle;Signal;HPM_P1;HPM_P2
2022/03/18 00:00:18;;;;;;;9.40;5.20;;;7.80;99.90;;;;;;4144548;28;20030;-67
2022/03/18 00:02:21;;;;;;;9.88;5.22;;;7.80;99.90;;;;;;4145274;28;20038;-67
2022/03/18 00:04:21;;;;;;;5.72;4.38;;;7.80;99.90;;;;;;4144747;28;20050;-67
2022/03/18 00:06:22;;;;;;;8.15;4.65;;;7.70;99.90;;;;;;4140292;28;20076;-67
2022/03/18 00:08:22;;;;;;;10.45;5.20;;;7.70;99.90;;;;;;4144762;28;20030;-66
2022/03/18 00:10:23;;;;;;;11.90;5.10;;;7.60;99.90;;;;;;4144798;28;20046;-67
2022/03/18 00:12:24;;;;;;;8.50;4.78;;;7.70;99.90;;;;;;4142781;28;20568;-67
2022/03/18 00:14:25;;;;;;;6.88;4.13;;;7.60;99.90;;;;;;4144717;28;20042;-67
2022/03/18 00:16:26;;;;;;;9.73;4.35;;;7.60;99.90;;;;;;4144213;28;20061;-67
2022/03/18 00:18:26;;;;;;;7.45;4.32;;;7.60;99.90;;;;;;4144129;28;20042;-67
2022/03/18 00:20:27;;;;;;;8.52;4.57;;;7.50;99.90;;;;;;4141357;28;20045;-67
2022/03/18 00:22:28;;;;;;;7.90;4.32;;;7.50;99.90;;;;;;4143607;28;20216;-67
2022/03/18 00:24:32;;;;;;;11.75;4.32;;;7.50;99.90;;;;;;4144361;28;20042;-66
2022/03/18 00:26:33;;;;;;;7.05;4.20;;;7.50;99.90;;;;;;4142823;28;20068;-67
2022/03/18 00:28:33;;;;;;;7.00;4.72;;;7.50;99.90;;;;;;4144367;28;20033;-66
2022/03/18 00:30:34;;;;;;;10.38;5.18;;;7.50;99.90;;;;;;4143864;28;20033;-66
2022/03/18 00:32:37;;;;;;;9.48;4.80;;;7.40;99.90;;;;;;4144441;28;20397;-67
2022/03/18 00:34:37;;;;;;;8.90;4.70;;;7.40;99.90;;;;;;4144915;28;20045;-67
2022/03/18 00:36:38;;;;;;;7.07;4.53;;;7.40;99.90;;;;;;4144172;28;20042;-67
2022/03/18 00:38:39;;;;;;;9.05;4.38;;;7.40;99.90;;;;;;4144402;28;20061;-67
2022/03/18 00:40:40;;;;;;;7.22;4.40;;;7.40;99.90;;;;;;4142521;28;20045;-66
2022/03/18 00:42:40;;;;;;;9.73;5.05;;;7.40;99.90;;;;;;4144469;28;20480;-67
2022/03/18 00:44:41;;;;;;;10.88;5.15;;;7.40;99.90;;;;;;4143073;28;20045;-67
2022/03/18 00:46:42;;;;;;;10.80;4.75;;;7.40;99.90;;;;;;4142531;28;20401;-67
2022/03/18 00:53:22;;;;;;;7.72;4.18;;;7.30;99.90;;;;;;4142815;28;20378;-67
2022/03/18 00:55:22;;;;;;;7.43;4.55;;;7.30;99.90;;;;;;4142497;28;20052;-67
2022/03/18 00:57:23;;;;;;;7.97;4.38;;;7.30;99.90;;;;;;4144558;28;20058;-67
2022/03/18 00:59:24;;;;;;;7.25;4.00;;;7.30;99.90;;;;;;4142841;28;20099;-67
2022/03/18 01:01:26;;;;;;;8.77;4.05;;;7.30;99.90;;;;;;4142719;28;21041;-67
2022/03/18 01:03:27;;;;;;;8.00;4.32;;;7.30;99.90;;;;;;4141170;28;20045;-67
2022/03/18 01:05:28;;;;;;;5.82;3.85;;;7.20;99.90;;;;;;4143312;28;20061;-67
2022/03/18 01:07:29;;;;;;;5.75;4.13;;;7.20;99.90;;;;;;4141373;28;20454;-67
2022/03/18 01:09:30;;;;;;;8.50;3.90;;;7.20;99.90;;;;;;4142158;28;20663;-67
2022/03/18 01:11:32;;;;;;;6.88;4.20;;;7.10;99.90;;;;;;4145207;28;20032;-67
2022/03/18 01:13:32;;;;;;;6.97;4.40;;;7.10;99.90;;;;;;4144523;28;20038;-66
2022/03/18 01:15:33;;;;;;;16.75;4.50;;;7.10;99.90;;;;;;4144178;28;20030;-67
2022/03/18 01:17:34;;;;;;;6.22;4.20;;;7.10;99.90;;;;;;4143722;28;20030;-66
2022/03/18 01:19:34;;;;;;;10.52;4.47;;;7.10;99.90;;;;;;4144484;28;20096;-66
2022/03/18 01:21:36;;;;;;;6.72;3.65;;;7.00;99.90;;;;;;4142555;28;20041;-66
2022/03/18 01:23:36;;;;;;;11.90;4.18;;;7.00;99.90;;;;;;4141985;28;20077;-67
2022/03/18 01:25:37;;;;;;;7.68;4.10;;;7.00;99.90;;;;;;4141677;28;20050;-67
2022/03/18 01:27:37;;;;;;;8.45;4.35;;;7.00;99.90;;;;;;4143186;28;20031;-67
2022/03/18 01:29:38;;;;;;;7.53;3.75;;;7.00;99.90;;;;;;4144480;28;20500;-66
2022/03/18 01:31:39;;;;;;;6.55;4.32;;;7.00;99.90;;;;;;4141314;28;20126;-67
2022/03/18 01:33:39;;;;;;;12.98;4.22;;;6.90;99.90;;;;;;4142055;28;20050;-67
2022/03/18 01:35:40;;;;;;;7.97;4.50;;;6.90;99.90;;;;;;4142901;28;20096;-67
2022/03/18 01:37:41;;;;;;;7.38;4.35;;;6.90;99.90;;;;;;4142708;28;20041;-67
2022/03/18 01:39:41;;;;;;;7.43;4.05;;;6.90;99.90;;;;;;4143525;28;20038;-66
2022/03/18 01:41:43;;;;;;;8.32;3.95;;;6.90;99.90;;;;;;4143056;28;20037;-67
2022/03/18 01:43:45;;;;;;;5.78;3.33;;;6.80;99.90;;;;;;4144187;28;20033;-66
2022/03/18 01:45:45;;;;;;;6.10;3.65;;;6.80;99.90;;;;;;4147173;28;20061;-66
2022/03/18 01:47:47;;;;;;;5.88;3.70;;;6.80;99.90;;;;;;4142026;28;20117;-67
2022/03/18 01:49:48;;;;;;;8.60;4.10;;;6.80;99.90;;;;;;4144081;28;20034;-66
2022/03/18 01:51:48;;;;;;;5.57;3.92;;;6.70;99.90;;;;;;4142871;28;20393;-67
2022/03/18 01:54:44;;;;;;;8.43;3.63;;;6.70;99.90;;;;;;4142898;28;20054;-66
2022/03/18 01:56:13;;;;;;;5.00;3.38;;;6.70;99.90;;;;;;4141503;28;20080;-67
2022/03/18 01:58:14;;;;;;;7.82;3.47;;;6.70;99.90;;;;;;4143714;28;20033;-67
2022/03/18 02:00:15;;;;;;;5.90;3.88;;;6.70;99.90;;;;;;4143258;28;20030;-67
2022/03/18 02:02:16;;;;;;;5.20;3.50;;;6.70;99.90;;;;;;4143413;28;20405;-66
2022/03/18 02:04:17;;;;;;;8.70;4.32;;;6.50;99.90;;;;;;4144280;28;20046;-67
2022/03/18 02:06:18;;;;;;;7.63;4.05;;;6.50;99.90;;;;;;4140086;28;20482;-66
2022/03/18 02:08:20;;;;;;;5.65;3.63;;;6.50;99.90;;;;;;4143526;28;20042;-67
2022/03/18 02:10:20;;;;;;;6.73;4.30;;;6.50;99.90;;;;;;4144039;28;20041;-67
2022/03/18 02:12:21;;;;;;;7.28;3.63;;;6.50;99.90;;;;;;4147361;28;20304;-66
2022/03/18 02:14:43;;;;;;;7.97;3.80;;;6.50;99.90;;;;;;4144025;28;20046;-68
2022/03/18 02:16:43;;;;;;;8.13;4.07;;;6.50;99.90;;;;;;4144707;28;20026;-67
2022/03/18 02:18:44;;;;;;;6.20;3.75;;;6.40;99.90;;;;;;4143280;28;20049;-67
2022/03/18 02:20:45;;;;;;;6.07;3.90;;;6.40;99.90;;;;;;4142382;28;20042;-66
2022/03/18 02:22:45;;;;;;;8.13;4.07;;;6.40;99.90;;;;;;4145364;28;20068;-67
2022/03/18 02:24:49;;;;;;;8.25;4.07;;;6.40;99.90;;;;;;4141483;28;20037;-67
2022/03/18 02:26:51;;;;;;;5.93;3.78;;;6.40;99.90;;;;;;4145642;28;20034;-66
2022/03/18 02:28:52;;;;;;;11.10;3.72;;;6.40;99.90;;;;;;4144041;28;20078;-66
2022/03/18 02:30:53;;;;;;;7.43;3.85;;;6.40;99.90;;;;;;4142534;28;20052;-66
2022/03/18 02:32:54;;;;;;;9.73;4.10;;;6.40;99.90;;;;;;4139671;28;20153;-67
2022/03/18 02:34:55;;;;;;;9.32;3.53;;;6.40;99.90;;;;;;4142363;28;20042;-66
2022/03/18 02:36:56;;;;;;;7.03;3.67;;;6.30;99.90;;;;;;4142538;28;20037;-67
2022/03/18 02:38:56;;;;;;;6.75;3.60;;;6.30;99.90;;;;;;4142026;28;20034;-67
2022/03/18 02:40:57;;;;;;;7.57;4.35;;;6.30;99.90;;;;;;4124415;28;20490;-67
2022/03/18 02:42:58;;;;;;;7.18;4.05;;;6.30;99.90;;;;;;4143259;28;20111;-66
2022/03/18 02:45:00;;;;;;;7.57;3.75;;;6.20;99.90;;;;;;4142567;28;20034;-66
2022/03/18 02:47:01;;;;;;;7.20;4.05;;;6.20;99.90;;;;;;4141889;28;20049;-66
2022/03/18 02:49:03;;;;;;;7.82;3.85;;;6.20;99.90;;;;;;4141761;28;20030;-66
2022/03/18 02:51:04;;;;;;;6.15;3.60;;;6.20;99.90;;;;;;4142140;28;20035;-66
2022/03/18 02:53:05;;;;;;;8.20;4.18;;;6.20;99.90;;;;;;4146436;28;20062;-66
2022/03/18 02:55:06;;;;;;;7.65;3.72;;;6.20;99.90;;;;;;4145163;28;20046;-69
2022/03/18 02:57:07;;;;;;;7.53;3.75;;;6.10;99.90;;;;;;4145249;28;20034;-66
2022/03/18 02:59:07;;;;;;;10.75;4.25;;;6.20;99.90;;;;;;4143667;28;20049;-66
2022/03/18 03:01:08;;;;;;;5.47;3.67;;;6.10;99.90;;;;;;4143684;28;20073;-66
2022/03/18 03:03:09;;;;;;;7.93;3.75;;;6.10;99.90;;;;;;4145074;28;20046;-66
2022/03/18 03:09:48;;;;;;;6.00;3.35;;;6.00;99.90;;;;;;4140298;28;20478;-66
2022/03/18 03:11:49;;;;;;;5.57;3.33;;;6.00;99.90;;;;;;4143827;28;20049;-66
2022/03/18 03:13:50;;;;;;;6.07;3.67;;;5.90;99.90;;;;;;4146587;28;20038;-66
2022/03/18 03:15:51;;;;;;;8.95;3.67;;;5.90;99.90;;;;;;4141262;28;20422;-66
2022/03/18 03:17:51;;;;;;;6.90;3.67;;;5.90;99.90;;;;;;4143731;28;20053;-67
2022/03/18 03:19:54;;;;;;;7.78;3.90;;;5.90;99.90;;;;;;4146033;28;20042;-66
2022/03/18 03:21:55;;;;;;;;;;;5.90;99.90;;;;;;4144321;28;20061;-66
2022/03/18 03:23:56;;;;;;;7.65;4.10;;;5.90;99.90;;;;;;4144931;28;20349;-67
2022/03/18 03:25:57;;;;;;;5.57;3.65;;;5.90;99.90;;;;;;4144167;28;20058;-66
2022/03/18 03:27:57;;;;;;;6.53;3.17;;;5.80;99.90;;;;;;4145697;28;20470;-67
2022/03/18 03:30:04;;;;;;;6.97;3.70;;;5.80;99.90;;;;;;4143545;28;20034;-67
2022/03/18 03:32:05;;;;;;;9.30;4.38;;;5.80;99.90;;;;;;4142417;28;20485;-67
2022/03/18 03:34:05;;;;;;;6.80;3.83;;;5.80;99.90;;;;;;4145698;28;20096;-66
2022/03/18 03:36:07;;;;;;;6.20;3.90;;;5.80;99.90;;;;;;4143773;28;20469;-66
2022/03/18 03:38:10;;;;;;;6.25;3.35;;;5.80;99.90;;;;;;4144030;28;20037;-66
2022/03/18 03:40:14;;;;;;;8.65;3.40;;;5.70;99.90;;;;;;4140668;28;20042;-68
2022/03/18 03:42:15;;;;;;;5.75;3.40;;;5.70;99.90;;;;;;4146268;28;20038;-66
2022/03/18 03:44:16;;;;;;;6.72;3.80;;;5.70;99.90;;;;;;4144402;28;20042;-66
2022/03/18 03:46:17;;;;;;;6.38;3.90;;;5.60;99.90;;;;;;4144763;28;20038;-67
2022/03/18 03:48:17;;;;;;;7.63;3.60;;;5.60;99.90;;;;;;4145554;28;20088;-66
2022/03/18 03:50:18;;;;;;;5.82;3.13;;;5.60;99.90;;;;;;4144013;28;20116;-67
2022/03/18 03:52:18;;;;;;;7.03;3.78;;;5.60;99.90;;;;;;4144193;28;20038;-66
2022/03/18 03:54:19;;;;;;;6.65;3.75;;;5.60;99.90;;;;;;4144197;28;20042;-67
2022/03/18 03:56:19;;;;;;;7.35;3.63;;;5.50;99.90;;;;;;4143963;28;20472;-66
2022/03/18 03:58:20;;;;;;;7.68;3.67;;;5.50;99.90;;;;;;4144084;28;20038;-66
2022/03/18 04:00:21;;;;;;;4.88;3.30;;;5.50;99.90;;;;;;4144083;28;20060;-67
2022/03/18 04:02:22;;;;;;;6.45;3.70;;;5.50;99.90;;;;;;4143849;28;20046;-66
2022/03/18 04:04:23;;;;;;;9.82;4.25;;;5.50;99.90;;;;;;4143463;28;20038;-66
2022/03/18 04:06:24;;;;;;;7.10;4.00;;;5.50;99.90;;;;;;4143684;28;20037;-66
2022/03/18 04:08:24;;;;;;;5.28;3.40;;;5.40;99.90;;;;;;4144657;28;20062;-66
2022/03/18 04:10:25;;;;;;;5.03;3.40;;;5.40;99.90;;;;;;4142576;28;20046;-67
2022/03/18 04:12:26;;;;;;;6.50;3.83;;;5.40;99.90;;;;;;4146008;28;20037;-66
2022/03/18 04:14:26;;;;;;;4.85;3.45;;;5.40;99.90;;;;;;4143871;28;20421;-66
2022/03/18 04:16:27;;;;;;;9.25;4.18;;;5.30;99.90;;;;;;4144040;28;20342;-66
2022/03/18 04:18:27;;;;;;;6.47;3.47;;;5.30;99.90;;;;;;4143546;28;20125;-66
2022/03/18 04:20:30;;;;;;;5.35;3.72;;;5.30;99.90;;;;;;4143184;28;20037;-67
2022/03/18 04:22:31;;;;;;;5.43;3.88;;;5.30;99.90;;;;;;4142933;28;20073;-67
2022/03/18 04:24:31;;;;;;;8.02;4.18;;;5.30;99.90;;;;;;4143931;28;20099;-66
2022/03/18 04:26:32;;;;;;;8.13;4.40;;;5.30;99.90;;;;;;4144039;28;20038;-66
2022/03/18 04:28:33;;;;;;;8.60;4.25;;;5.30;99.90;;;;;;4143477;28;20038;-66
2022/03/18 04:30:34;;;;;;;7.60;4.28;;;5.20;99.90;;;;;;4143752;28;20379;-66
2022/03/18 04:32:35;;;;;;;6.35;3.38;;;5.30;99.90;;;;;;4143701;28;20038;-66
2022/03/18 04:34:35;;;;;;;6.45;3.85;;;5.20;99.90;;;;;;4144042;28;20496;-66
2022/03/18 04:36:36;;;;;;;6.07;3.55;;;5.20;99.90;;;;;;4142885;28;20487;-66
2022/03/18 04:38:37;;;;;;;5.90;3.55;;;5.20;99.90;;;;;;4143738;28;20053;-66
2022/03/18 04:40:37;;;;;;;6.30;4.10;;;5.20;99.90;;;;;;4142413;28;20113;-66
2022/03/18 04:42:38;;;;;;;9.02;3.70;;;5.20;99.90;;;;;;4143103;28;20040;-67
2022/03/18 04:44:39;;;;;;;7.78;3.85;;;5.20;99.90;;;;;;4143364;28;20535;-66
2022/03/18 04:46:39;;;;;;;5.28;3.45;;;5.20;99.90;;;;;;4142679;28;20034;-66
2022/03/18 04:48:40;;;;;;;5.63;3.92;;;5.20;99.90;;;;;;4144400;28;20041;-66
2022/03/18 04:50:40;;;;;;;9.23;3.88;;;5.20;99.90;;;;;;4143467;28;20436;-66
2022/03/18 04:52:41;;;;;;;6.60;3.72;;;5.20;99.90;;;;;;4143771;28;20042;-66
2022/03/18 04:54:42;;;;;;;9.00;4.43;;;5.20;99.90;;;;;;4143406;28;20037;-66
2022/03/18 04:59:03;;;;;;;8.63;3.70;;;5.10;99.90;;;;;;4142457;28;20034;-66
2022/03/18 05:01:03;;;;;;;8.80;3.97;;;5.00;99.90;;;;;;4142619;28;20034;-66
2022/03/18 05:03:04;;;;;;;8.25;4.00;;;5.00;99.90;;;;;;4142036;28;20053;-66
2022/03/18 05:05:08;;;;;;;8.35;3.40;;;5.00;99.90;;;;;;4144452;28;20103;-67
2022/03/18 05:07:11;;;;;;;4.97;3.33;;;5.00;99.90;;;;;;4143471;28;20038;-66
2022/03/18 05:09:12;;;;;;;6.70;4.00;;;5.00;99.90;;;;;;4143634;28;20088;-66
2022/03/18 05:11:12;;;;;;;8.90;3.88;;;5.00;99.90;;;;;;4142821;28;20034;-66
2022/03/18 05:13:13;;;;;;;5.95;3.47;;;5.00;99.90;;;;;;4143264;28;20060;-66
2022/03/18 05:15:14;;;;;;;5.10;3.60;;;5.00;99.90;;;;;;4142130;28;20385;-67
2022/03/18 05:17:15;;;;;;;5.65;3.42;;;5.00;99.90;;;;;;4143338;28;20065;-66
2022/03/18 05:19:16;;;;;;;6.30;3.88;;;5.00;99.90;;;;;;4149747;28;20037;-66
2022/03/18 05:21:16;;;;;;;5.75;3.10;;;5.00;99.90;;;;;;4142038;28;20470;-66
2022/03/18 05:23:17;;;;;;;7.72;4.18;;;5.00;99.90;;;;;;4142176;28;20062;-66
2022/03/18 05:25:18;;;;;;;10.10;4.57;;;5.00;99.90;;;;;;4143652;28;20044;-67
2022/03/18 05:27:19;;;;;;;6.90;4.03;;;5.00;99.90;;;;;;4145718;28;20392;-66
2022/03/18 05:29:20;;;;;;;4.90;3.58;;;5.00;99.90;;;;;;4143838;28;20393;-66
2022/03/18 05:31:21;;;;;;;6.10;3.40;;;5.00;99.90;;;;;;4140208;28;20110;-66
2022/03/18 05:33:21;;;;;;;6.32;3.83;;;5.00;99.90;;;;;;4140059;28;20050;-66
2022/03/18 05:35:22;;;;;;;5.55;3.35;;;5.00;99.90;;;;;;4142266;28;20041;-67
2022/03/18 05:37:23;;;;;;;8.15;3.50;;;5.00;99.90;;;;;;4140021;28;20104;-66
2022/03/18 05:39:23;;;;;;;7.28;3.30;;;5.00;99.90;;;;;;4143444;28;20052;-66
2022/03/18 05:41:24;;;;;;;7.40;4.00;;;5.00;99.90;;;;;;4140644;28;20073;-66
2022/03/18 05:43:24;;;;;;;8.10;3.58;;;5.00;99.90;;;;;;4142482;28;20042;-66
2022/03/18 05:45:25;;;;;;;8.40;3.70;;;4.90;99.90;;;;;;4142364;28;20061;-66
2022/03/18 05:47:26;;;;;;;6.65;3.58;;;4.90;99.90;;;;;;4140702;28;20046;-66
2022/03/18 05:49:27;;;;;;;7.65;3.20;;;4.90;99.90;;;;;;4140615;28;20129;-66
2022/03/18 05:51:27;;;;;;;6.90;3.33;;;4.90;99.90;;;;;;4140477;28;20382;-66
2022/03/18 05:53:31;;;;;;;6.95;3.60;;;4.90;99.90;;;;;;4139270;28;20061;-66
2022/03/18 05:57:53;;;;;;;9.68;4.03;;;4.80;99.90;;;;;;4140207;28;20030;-66
2022/03/18 05:59:56;;;;;;;7.90;3.80;;;4.80;99.90;;;;;;4140353;28;20053;-66
2022/03/18 06:01:58;;;;;;;8.90;3.70;;;4.80;99.90;;;;;;4142253;28;20064;-66
2022/03/18 06:04:00;;;;;;;7.72;3.95;;;4.90;99.90;;;;;;4147638;28;20050;-66
2022/03/18 06:06:01;;;;;;;9.52;4.20;;;4.90;99.90;;;;;;4144502;28;20117;-66
2022/03/18 06:12:40;;;;;;;8.45;3.50;;;4.90;99.90;;;;;;4145026;28;20033;-66
2022/03/18 06:14:41;;;;;;;8.20;3.90;;;4.90;99.90;;;;;;4145472;28;20033;-66
2022/03/18 06:16:42;;;;;;;6.68;3.50;;;4.90;99.90;;;;;;4140944;28;20064;-66
2022/03/18 06:18:43;;;;;;;9.70;3.97;;;4.90;99.90;;;;;;4142418;28;20036;-66
2022/03/18 06:20:49;;;;;;;8.82;3.85;;;4.90;99.90;;;;;;4140420;28;20397;-67
2022/03/18 06:22:50;;;;;;;7.10;3.80;;;4.90;99.90;;;;;;4139395;28;20065;-66
2022/03/18 06:24:50;;;;;;;7.90;3.83;;;4.90;99.90;;;;;;4147087;28;20041;-66
2022/03/18 06:26:52;;;;;;;6.45;3.53;;;4.90;99.90;;;;;;4142898;28;20030;-66
2022/03/18 06:28:52;;;;;;;8.77;3.80;;;4.90;99.90;;;;;;4141192;28;20049;-66
2022/03/18 06:30:53;;;;;;;7.47;3.72;;;4.90;99.90;;;;;;4140054;28;20053;-66
2022/03/18 06:32:54;;;;;;;7.07;3.63;;;4.90;99.90;;;;;;4149288;28;20461;-66
2022/03/18 06:34:54;;;;;;;7.07;4.22;;;4.90;99.90;;;;;;4149489;28;20504;-66
2022/03/18 06:36:57;;;;;;;9.82;4.13;;;4.90;99.90;;;;;;4147788;28;20124;-66
2022/03/18 06:38:58;;;;;;;6.90;3.70;;;4.90;99.90;;;;;;4151269;28;20137;-66
2022/03/18 06:40:59;;;;;;;6.88;3.53;;;4.90;99.90;;;;;;4151488;28;20026;-66
2022/03/18 06:42:59;;;;;;;8.27;3.85;;;4.90;99.90;;;;;;4150013;28;20037;-66
2022/03/18 06:45:00;;;;;;;6.07;3.45;;;4.90;99.90;;;;;;4150407;28;20029;-67
2022/03/18 06:47:00;;;;;;;8.88;3.47;;;4.90;99.90;;;;;;4149803;28;20033;-67
2022/03/18 06:49:01;;;;;;;6.70;3.72;;;4.90;99.90;;;;;;4150213;28;20049;-66
2022/03/18 06:51:01;;;;;;;10.05;3.55;;;5.00;99.90;;;;;;4149578;28;20413;-67
2022/03/18 06:53:02;;;;;;;6.15;3.70;;;5.10;99.90;;;;;;4150596;28;20061;-67
2022/03/18 06:55:03;;;;;;;9.85;4.00;;;5.30;99.90;;;;;;4145478;28;20491;-65
2022/03/18 06:57:04;;;;;;;7.97;4.03;;;5.60;99.90;;;;;;4149379;28;20033;-66
2022/03/18 06:59:04;;;;;;;6.75;4.22;;;5.80;99.90;;;;;;4149410;28;20042;-66
2022/03/18 07:01:05;;;;;;;10.20;4.25;;;6.10;99.90;;;;;;4150070;28;20042;-66
2022/03/18 07:03:06;;;;;;;7.28;3.75;;;6.30;99.90;;;;;;4148759;28;20132;-67
2022/03/18 07:05:08;;;;;;;7.50;4.10;;;6.60;99.90;;;;;;4147995;28;20064;-68
2022/03/18 07:07:09;;;;;;;7.22;4.30;;;6.80;99.90;;;;;;4149530;28;20041;-67
2022/03/18 07:09:10;;;;;;;5.45;3.53;;;7.20;99.90;;;;;;4148434;28;20124;-67
2022/03/18 07:11:13;;;;;;;8.80;4.65;;;7.40;99.90;;;;;;4146710;28;20029;-67
2022/03/18 07:13:14;;;;;;;6.20;3.92;;;7.60;99.90;;;;;;4150015;28;20087;-67
2022/03/18 07:15:15;;;;;;;9.57;3.85;;;7.80;99.90;;;;;;4144764;28;20026;-68
2022/03/18 07:19:35;;;;;;;10.60;4.13;;;8.20;99.90;;;;;;4140099;28;20045;-67
2022/03/18 07:21:36;;;;;;;14.30;4.82;;;8.50;99.90;;;;;;4142291;28;20037;-67
2022/03/18 07:23:36;;;;;;;9.35;4.55;;;8.80;99.90;;;;;;4142699;28;20060;-67
2022/03/18 07:25:40;;;;;;;7.57;4.45;;;9.00;99.90;;;;;;4145506;28;20034;-67
2022/03/18 07:27:40;;;;;;;8.65;4.65;;;9.30;99.90;;;;;;4143774;28;20573;-67
2022/03/18 07:29:41;;;;;;;11.27;4.25;;;9.60;99.90;;;;;;4144000;28;20069;-67
2022/03/18 07:31:42;;;;;;;7.00;4.22;;;9.60;99.90;;;;;;4141606;28;20088;-67
2022/03/18 07:33:42;;;;;;;9.82;4.40;;;9.80;99.90;;;;;;4143271;28;20045;-67
2022/03/18 07:35:43;;;;;;;9.23;4.00;;;9.70;99.90;;;;;;4143038;28;20044;-67
2022/03/18 07:37:44;;;;;;;8.70;4.45;;;9.90;99.90;;;;;;4146524;28;20034;-67
2022/03/18 07:39:44;;;;;;;9.30;4.00;;;10.20;99.90;;;;;;4137102;28;20144;-69
2022/03/18 07:41:45;;;;;;;11.90;4.60;;;10.50;99.90;;;;;;4142588;28;20703;-68
2022/03/18 07:43:45;;;;;;;10.45;4.03;;;10.80;99.90;;;;;;4143601;28;20474;-67
2022/03/18 07:45:47;;;;;;;8.95;4.43;;;11.10;99.90;;;;;;4139769;28;20061;-67
2022/03/18 07:47:51;;;;;;;8.88;4.10;;;11.00;99.90;;;;;;4134233;28;20034;-67
2022/03/18 07:49:52;;;;;;;6.05;3.53;;;11.20;99.90;;;;;;4140781;28;20034;-67
2022/03/18 07:51:52;;;;;;;10.25;4.53;;;11.10;99.90;;;;;;4140722;28;20592;-67
2022/03/18 07:53:53;;;;;;;11.73;4.65;;;11.00;99.90;;;;;;4141347;28;20053;-67
2022/03/18 07:55:54;;;;;;;9.05;4.10;;;11.20;99.90;;;;;;4140635;28;20108;-67
2022/03/18 07:57:56;;;;;;;6.72;3.60;;;11.40;99.90;;;;;;4142246;28;20058;-67
2022/03/18 07:59:56;;;;;;;8.80;4.20;;;11.90;99.90;;;;;;4140636;28;20100;-67
2022/03/18 08:01:57;;;;;;;8.20;3.80;;;12.30;99.90;;;;;;4141375;28;20132;-67
2022/03/18 08:03:57;;;;;;;8.40;3.78;;;12.60;99.90;;;;;;4141968;28;20030;-67
2022/03/18 08:05:58;;;;;;;10.43;3.95;;;13.00;99.90;;;;;;4140406;28;20116;-67
2022/03/18 08:07:58;;;;;;;10.95;3.60;;;13.30;99.90;;;;;;4142482;28;20061;-67
2022/03/18 08:09:59;;;;;;;10.43;3.80;;;13.70;99.90;;;;;;4143693;28;20690;-67
2022/03/18 08:12:00;;;;;;;9.60;4.07;;;14.10;99.90;;;;;;4144095;28;20046;-67
2022/03/18 08:14:00;;;;;;;11.32;3.47;;;14.40;99.90;;;;;;4142757;28;20058;-67
2022/03/18 08:16:01;;;;;;;8.98;3.70;;;14.60;99.90;;;;;;4144607;28;20129;-67
2022/03/18 08:18:02;;;;;;;10.73;4.07;;;14.80;99.90;;;;;;4144261;28;20045;-67
2022/03/18 08:20:04;;;;;;;9.23;3.55;;;14.60;99.90;;;;;;4143730;28;20034;-68
2022/03/18 08:22:05;;;;;;;10.75;3.88;;;14.70;99.90;;;;;;4140948;28;20468;-67
2022/03/18 08:24:07;;;;;;;9.90;4.03;;;14.90;99.90;;;;;;4144649;28;20073;-67
2022/03/18 08:26:07;;;;;;;9.52;3.70;;;15.10;99.90;;;;;;4141579;28;20116;-67
2022/03/18 08:28:08;;;;;;;6.90;3.30;;;15.30;99.90;;;;;;4146910;28;20046;-67
2022/03/18 08:30:13;;;;;;;7.63;3.08;;;15.50;99.90;;;;;;4143020;28;20053;-66
2022/03/18 08:32:15;;;;;;;7.00;2.83;;;15.40;99.90;;;;;;4150405;28;20080;-67
2022/03/18 08:34:16;;;;;;;7.95;3.15;;;15.60;99.90;;;;;;4144273;28;20146;-67
2022/03/18 08:36:16;;;;;;;12.88;3.80;;;15.70;99.90;;;;;;4146093;28;20042;-68
2022/03/18 08:38:17;;;;;;;11.48;3.90;;;15.40;98.30;;;;;;4149563;28;20112;-67
2022/03/18 08:40:18;;;;;;;10.50;3.30;;;15.60;99.90;;;;;;4148779;28;20488;-68
2022/03/18 08:42:18;;;;;;;7.97;3.30;;;15.70;99.90;;;;;;4149826;28;20034;-67
2022/03/18 08:44:19;;;;;;;9.15;4.28;;;15.70;99.90;;;;;;4152315;28;20092;-67
2022/03/18 08:46:20;;;;;;;11.00;4.10;;;15.60;99.90;;;;;;4142897;28;20095;-67
2022/03/18 08:48:21;;;;;;;8.52;4.07;;;15.70;99.40;;;;;;4144285;28;20421;-67
2022/03/18 08:50:23;;;;;;;7.90;4.10;;;15.60;98.10;;;;;;4144463;28;20058;-67
2022/03/18 08:52:23;;;;;;;8.55;3.70;;;15.30;99.10;;;;;;4142156;28;20046;-66
2022/03/18 08:54:24;;;;;;;9.38;3.80;;;15.40;98.90;;;;;;4141734;28;20408;-67
2022/03/18 08:56:25;;;;;;;11.73;3.75;;;15.00;99.40;;;;;;4141979;28;20134;-67
2022/03/18 08:58:25;;;;;;;6.75;2.85;;;15.10;99.90;;;;;;4142385;28;20045;-66
2022/03/18 09:00:26;;;;;;;10.20;4.07;;;15.10;97.10;;;;;;4141715;28;21232;-67
2022/03/18 09:02:26;;;;;;;9.85;3.58;;;14.50;95.30;;;;;;4143034;28;20034;-67
2022/03/18 09:04:27;;;;;;;9.95;3.85;;;14.50;98.40;;;;;;4142198;28;20378;-67
2022/03/18 09:06:27;;;;;;;6.75;2.97;;;14.10;95.70;;;;;;4142432;28;20124;-67
2022/03/18 09:08:28;;;;;;;8.90;3.20;;;13.60;96.70;;;;;;4142848;28;20046;-67
2022/03/18 09:10:29;;;;;;;8.00;3.13;;;13.60;97.50;;;;;;4135799;28;21351;-67
2022/03/18 09:12:29;;;;;;;9.07;3.22;;;13.70;96.90;;;;;;4136148;28;20396;-67
2022/03/18 09:14:30;;;;;;;12.02;3.50;;;13.80;99.60;;;;;;4139611;28;20046;-67
2022/03/18 09:16:33;;;;;;;13.93;3.80;;;13.60;98.50;;;;;;4130263;28;20066;-67
2022/03/18 09:18:34;;;;;;;9.30;3.13;;;13.70;99.00;;;;;;4141118;28;20041;-67
2022/03/18 09:20:34;;;;;;;9.43;2.95;;;13.70;99.90;;;;;;4141425;28;20073;-67
2022/03/18 09:22:35;;;;;;;9.45;3.03;;;13.70;99.70;;;;;;4142047;28;20049;-67
2022/03/18 09:24:37;;;;;;;12.25;3.28;;;13.40;97.10;;;;;;4141616;28;20477;-67
2022/03/18 09:26:38;;;;;;;6.53;2.58;;;13.30;97.00;;;;;;4140586;28;20037;-66
2022/03/18 09:28:39;;;;;;;13.90;3.45;;;13.40;98.10;;;;;;4141116;28;20036;-66
2022/03/18 09:30:41;;;;;;;6.05;2.67;;;13.50;96.60;;;;;;4141584;28;20092;-66
2022/03/18 09:32:42;;;;;;;13.63;3.28;;;13.60;99.20;;;;;;4140561;28;20150;-67
2022/03/18 09:34:43;;;;;;;9.43;3.10;;;13.40;95.60;;;;;;4142938;28;20092;-67
2022/03/18 09:36:44;;;;;;;11.25;2.85;;;13.30;95.80;;;;;;4141417;28;20038;-66
2022/03/18 09:38:46;;;;;;;9.32;2.90;;;13.30;96.80;;;;;;4140583;28;20054;-66
2022/03/18 09:40:47;;;;;;;7.95;2.90;;;13.30;96.10;;;;;;4140070;28;20050;-67
2022/03/18 09:42:54;;;;;;;12.23;3.05;;;13.10;95.20;;;;;;4140881;28;20041;-66
2022/03/18 09:44:55;;;;;;;9.48;2.67;;;13.20;97.10;;;;;;4139503;28;20049;-67
2022/03/18 09:46:55;;;;;;;8.07;2.88;;;13.20;96.40;;;;;;4141473;28;20557;-67
2022/03/18 09:48:56;;;;;;;7.80;3.45;;;13.30;97.80;;;;;;4140412;28;20045;-67
2022/03/18 09:50:57;;;;;;;9.50;2.90;;;13.10;96.00;;;;;;4123824;28;20470;-67
2022/03/18 09:52:58;;;;;;;8.90;2.60;;;13.20;98.20;;;;;;4140989;28;20096;-67
2022/03/18 09:54:58;;;;;;;7.30;2.60;;;13.20;96.90;;;;;;4141053;28;20510;-67
2022/03/18 09:57:01;;;;;;;10.10;3.10;;;13.10;96.40;;;;;;4139694;28;20070;-67
2022/03/18 09:59:02;;;;;;;10.52;2.85;;;12.90;95.50;;;;;;4141992;28;20046;-67
2022/03/18 10:01:02;;;;;;;10.02;2.97;;;13.00;96.00;;;;;;4143776;28;20049;-67
2022/03/18 10:03:17;;;;;;;10.70;3.25;;;13.00;96.00;;;;;;4149390;28;20042;-67
2022/03/18 10:05:18;;;;;;;7.40;2.90;;;12.90;95.80;;;;;;4145225;28;20176;-67
2022/03/18 10:07:21;;;;;;;7.38;2.70;;;13.00;97.70;;;;;;4143085;28;20069;-67
2022/03/18 10:09:28;;;;;;;7.38;2.70;;;13.00;97.80;;;;;;4142742;28;20037;-66
2022/03/18 10:11:30;;;;;;;9.15;2.47;;;13.00;97.60;;;;;;4142196;28;20041;-67
2022/03/18 10:13:49;;;;;;;8.55;2.97;;;13.00;97.40;;;;;;4141803;28;20046;-67
2022/03/18 10:15:50;;;;;;;8.93;2.85;;;12.80;95.30;;;;;;4142227;28;20093;-67
2022/03/18 10:17:53;;;;;;;7.90;2.85;;;12.80;95.40;;;;;;4143845;28;20038;-67
2022/03/18 10:19:54;;;;;;;6.32;2.50;;;12.90;95.90;;;;;;4141816;28;20137;-67
2022/03/18 10:22:03;;;;;;;5.97;2.45;;;13.00;95.30;;;;;;4143042;28;20046;-67
2022/03/18 10:24:09;;;;;;;6.32;2.80;;;13.10;94.40;;;;;;4142376;28;20038;-67
2022/03/18 10:26:14;;;;;;;6.95;2.83;;;13.00;94.30;;;;;;4142777;28;20068;-66
2022/03/18 10:28:15;;;;;;;6.95;2.65;;;13.20;96.40;;;;;;4144099;28;20053;-67
2022/03/18 10:30:22;;;;;;;5.15;2.20;;;13.10;95.00;;;;;;4141059;28;20470;-67
2022/03/18 10:32:26;;;;;;;7.63;2.50;;;13.20;96.20;;;;;;4141407;28;20029;-67
2022/03/18 10:37:13;;;;;;;7.55;2.65;;;13.00;95.60;;;;;;4119549;28;20092;-66
2022/03/18 10:39:25;;;;;;;7.70;2.15;;;13.20;95.80;;;;;;4144189;28;20034;-66
2022/03/18 10:41:25;;;;;;;8.45;2.95;;;13.40;98.70;;;;;;4140998;28;20065;-67
2022/03/18 10:43:26;;;;;;;9.23;3.00;;;13.40;96.20;;;;;;4143597;28;20417;-67
2022/03/18 10:45:27;;;;;;;7.68;2.60;;;13.40;95.50;;;;;;4145164;28;20049;-67
2022/03/18 10:47:32;;;;;;;11.30;3.08;;;13.30;95.30;;;;;;4140447;28;20117;-67
2022/03/18 10:49:33;;;;;;;9.52;2.83;;;13.30;95.80;;;;;;4142147;28;20061;-67
2022/03/18 10:51:34;;;;;;;14.48;3.38;;;13.10;94.50;;;;;;4141402;28;20103;-67
2022/03/18 10:53:37;;;;;;;7.40;2.15;;;13.20;94.90;;;;;;4142619;28;20452;-67
2022/03/18 10:55:42;;;;;;;9.95;2.40;;;13.20;94.10;;;;;;4139944;28;20182;-66
2022/03/18 10:57:59;;;;;;;4.85;2.40;;;13.30;95.30;;;;;;4141496;28;20057;-66
2022/03/18 11:00:00;;;;;;;8.75;2.63;;;13.20;93.60;;;;;;4141623;28;20038;-67